Time;durP1;ratioP1;P1;durP2;ratioP2;P2;SDS_P1;SDS_P2;PMS_P1;PMS_P2;Temp;Humidity;BMP_temperature;BMP_pressure;BME280_temperature;BME280_humidity;BME280_pressure;Samples;Min_cycle;Max_cycle;Signal;HPM_P1;HPM_P2
2022/06/12 00:00:11;;;;;;;11.10;2.00;;;;;;;-145.18;100.00;46691.66;4990459;28;20030;-81
2022/06/12 00:02:37;;;;;;;8.77;1.60;;;;;;;-145.18;100.00;46699.47;4990455;28;20031;-83
2022/06/12 00:05:04;;;;;;;9.07;2.10;;;;;;;-145.18;100.00;46687.75;4990660;28;20065;-82
2022/06/12 00:07:29;;;;;;;9.13;1.70;;;;;;;-145.18;100.00;46687.75;4989879;28;20498;-82
2022/06/12 00:09:55;;;;;;;8.10;1.80;;;;;;;-145.18;100.00;46699.47;4990713;28;20038;-82
2022/06/12 00:12:20;;;;;;;13.27;2.03;;;;;;;-145.18;100.00;46691.66;4989946;28;20039;-83
2022/06/12 00:14:45;;;;;;;10.80;1.50;;;;;;;-145.18;100.00;46687.75;4992399;28;20046;-83
2022/06/12 00:17:11;;;;;;;9.50;2.30;;;;;;;-145.18;100.00;46676.03;4994005;28;20054;-83
2022/06/12 00:19:37;;;;;;;12.53;2.00;;;;;;;-145.18;100.00;46677.97;4994605;28;20483;-83
2022/06/12 00:22:03;;;;;;;9.73;2.43;;;;;;;-145.18;100.00;46674.06;4994095;28;20085;-84
2022/06/12 00:24:29;;;;;;;12.67;2.53;;;;;;;-145.18;100.00;46677.97;4994477;28;20034;-83
2022/06/12 00:26:58;;;;;;;8.40;1.63;;;;;;;-145.18;100.00;46672.13;4994309;28;20038;-82
2022/06/12 00:29:31;;;;;;;10.70;1.90;;;;;;;-145.18;100.00;46679.94;4993986;28;20386;-82
2022/06/12 00:32:01;;;;;;;12.97;2.40;;;;;;;-145.18;100.00;46676.03;4994053;28;20117;-82
2022/06/12 00:34:34;;;;;;;11.57;2.87;;;;;;;-145.18;100.00;46679.94;4994084;28;20038;-82
2022/06/12 00:37:01;;;;;;;7.10;1.87;;;;;;;-145.18;100.00;46672.13;4994070;28;20074;-82
2022/06/12 00:39:28;;;;;;;7.43;2.40;;;;;;;-145.18;100.00;46672.13;4994061;28;20553;-82
2022/06/12 00:41:55;;;;;;;8.00;1.97;;;;;;;-145.18;100.00;46672.13;4993549;28;20030;-82
2022/06/12 00:44:25;;;;;;;8.70;2.20;;;;;;;-145.18;100.00;46677.97;4993002;28;20037;-83
2022/06/12 00:47:00;;;;;;;7.30;2.23;;;;;;;-145.18;100.00;46674.06;4993815;28;20152;-82
2022/06/12 00:49:33;;;;;;;8.87;2.57;;;;;;;-145.18;100.00;46674.06;4994104;28;20030;-82
2022/06/12 00:52:04;;;;;;;8.17;2.30;;;;;;;-145.18;100.00;46670.16;4993573;28;20033;-81
2022/06/12 00:54:30;;;;;;;10.70;2.37;;;;;;;-145.18;100.00;46676.03;4993840;28;20070;-82
2022/06/12 00:56:58;;;;;;;13.90;2.60;;;;;;;-145.18;100.00;46672.13;4993606;28;20041;-82
2022/06/12 00:59:43;;;;;;;13.57;2.10;;;;;;;-145.18;100.00;46666.25;4994023;28;20482;-82
2022/06/12 01:02:13;;;;;;;9.97;2.30;;;;;;;-145.18;100.00;46676.03;4993427;28;20088;-82
2022/06/12 01:07:27;;;;;;;11.83;3.43;;;;;;;-145.18;100.00;46668.22;4993455;28;20062;-82
2022/06/12 01:09:56;;;;;;;9.53;3.03;;;;;;;-145.18;100.00;46664.31;4993876;28;20118;-83
2022/06/12 01:12:26;;;;;;;15.27;3.10;;;;;;;-145.18;100.00;46666.25;4993337;28;20026;-82
2022/06/12 01:14:57;;;;;;;15.17;2.43;;;;;;;-145.18;100.00;46664.31;4993567;28;20089;-82
2022/06/12 01:17:24;;;;;;;15.43;2.40;;;;;;;-145.18;100.00;46668.22;4993126;28;20030;-82
2022/06/12 01:20:00;;;;;;;13.50;2.70;;;;;;;-145.18;100.00;46660.41;4993333;28;20026;-82
2022/06/12 01:22:44;;;;;;;;;;;;;;;-145.18;100.00;46670.16;4993601;28;20038;-82
2022/06/12 01:25:30;;;;;;;17.70;2.93;;;;;;;-145.18;100.00;46670.16;4993366;28;19932;-81
2022/06/12 01:28:23;;;;;;;11.75;2.72;;;;;;;-145.18;100.00;46666.25;4992709;28;20638;-82
2022/06/12 01:31:23;;;;;;;13.53;3.93;;;;;;;-145.18;100.00;46666.25;4993072;28;20077;-82
2022/06/12 01:34:01;;;;;;;12.93;2.60;;;;;;;-145.18;100.00;46666.25;4993133;28;20442;-82
2022/06/12 01:36:36;;;;;;;12.53;2.80;;;;;;;-145.18;100.00;46662.34;4992580;28;20391;-83
2022/06/12 01:39:25;;;;;;;11.68;3.17;;;;;;;-145.18;100.00;46668.22;4993325;28;20062;-83
2022/06/12 01:41:57;;;;;;;14.07;2.90;;;;;;;-145.18;100.00;46660.41;4992569;28;20502;-83
2022/06/12 01:44:37;;;;;;;14.63;3.00;;;;;;;-145.18;100.00;46662.34;4992773;28;20035;-82
2022/06/12 01:47:23;;;;;;;11.83;2.50;;;;;;;-145.18;100.00;46662.34;4992650;28;20029;-82
2022/06/12 01:50:01;;;;;;;12.07;3.20;;;;;;;-145.18;100.00;46668.22;4992888;28;20485;-82
2022/06/12 01:52:39;;;;;;;14.00;3.10;;;;;;;-145.18;100.00;46662.34;4992251;28;20038;-82
2022/06/12 01:55:14;;;;;;;11.80;3.83;;;;;;;-145.18;100.00;46660.41;4992714;28;20042;-82
2022/06/12 01:57:56;;;;;;;8.60;2.72;;;;;;;-145.18;100.00;46660.41;4992433;28;20030;-83
2022/06/12 02:02:53;;;;;;;22.73;3.95;;;;;;;-145.18;100.00;46662.34;5314685;23;20046;-81
2022/06/12 02:05:25;;;;;;;12.27;3.33;;;;;;;-145.18;100.00;46658.44;5005338;28;20404;-81
2022/06/12 02:08:02;;;;;;;18.63;3.00;;;;;;;-145.18;100.00;46654.53;5011986;28;20042;-81
2022/06/12 02:10:40;;;;;;;16.10;3.20;;;;;;;-145.18;100.00;46656.50;5012258;28;20061;-80
2022/06/12 02:13:11;;;;;;;16.70;3.57;;;;;;;-145.18;100.00;46652.59;5012152;28;20101;-81
2022/06/12 02:16:04;;;;;;;16.23;4.27;;;;;;;-145.18;100.00;46654.53;5012527;28;20037;-81
2022/06/12 02:18:33;;;;;;;14.30;3.17;;;;;;;-145.18;100.00;46662.34;5012050;28;20561;-80
2022/06/12 02:21:14;;;;;;;18.43;4.13;;;;;;;-145.18;100.00;46658.44;5012358;28;20037;-81
2022/06/12 02:23:55;;;;;;;14.77;4.00;;;;;;;-145.18;100.00;46658.44;5011964;28;20038;-81
2022/06/12 02:26:26;;;;;;;8.13;3.00;;;;;;;-145.18;100.00;46652.59;5012287;28;20413;-81
2022/06/12 02:28:57;;;;;;;15.00;3.47;;;;;;;-145.18;100.00;46652.59;5011744;28;20034;-82
2022/06/12 02:31:31;;;;;;;11.87;3.10;;;;;;;-145.18;100.00;46656.50;4994583;28;20381;-82
2022/06/12 02:34:04;;;;;;;16.00;3.40;;;;;;;-145.18;100.00;46652.59;5011492;28;20033;-81
2022/06/12 02:36:39;;;;;;;18.70;3.80;;;;;;;-145.18;100.00;46654.53;5011942;28;20490;-81
2022/06/12 02:39:13;;;;;;;19.40;4.35;;;;;;;-145.18;100.00;46650.63;5010877;28;20030;-81
2022/06/12 02:41:50;;;;;;;19.40;4.13;;;;;;;-145.18;100.00;46652.59;5011829;28;20506;-81
2022/06/12 02:44:26;;;;;;;13.37;4.53;;;;;;;-145.18;100.00;46652.59;5026983;28;20029;-82
2022/06/12 02:47:02;;;;;;;15.27;3.83;;;;;;;-145.18;100.00;46650.63;5011524;28;20033;-81
2022/06/12 02:49:27;;;;;;;16.42;3.30;;;;;;;-145.18;100.00;46650.63;5011546;28;20026;-80
2022/06/12 02:52:12;;;;;;;15.53;3.50;;;;;;;-145.18;100.00;46650.63;5011313;28;20049;-82
2022/06/12 02:55:15;;;;;;;11.73;4.17;;;;;;;-145.18;100.00;46648.69;5011710;28;20481;-80
2022/06/12 02:57:47;;;;;;;14.37;3.03;;;;;;;-145.18;100.00;46646.72;4995167;28;20508;-81
2022/06/12 03:00:22;;;;;;;14.87;3.20;;;;;;;-145.18;100.00;46652.59;5011558;28;20069;-81
2022/06/12 03:03:08;;;;;;;17.15;4.50;;;;;;;-145.18;100.00;46652.59;5010668;28;20092;-79
2022/06/12 03:05:37;;;;;;;17.17;3.35;;;;;;;-145.18;100.00;46644.78;5011644;28;20465;-80
2022/06/12 03:08:17;;;;;;;13.00;3.67;;;;;;;-145.18;100.00;46650.63;5010779;28;20030;-80
2022/06/12 03:10:48;;;;;;;15.80;3.90;;;;;;;-145.18;100.00;46644.78;5011107;28;20315;-79
2022/06/12 03:13:15;;;;;;;13.30;3.70;;;;;;;-145.18;100.00;46650.63;5011007;28;20061;-80
2022/06/12 03:15:46;;;;;;;13.07;3.30;;;;;;;-145.18;100.00;46644.78;5011224;28;20042;-80
2022/06/12 03:18:17;;;;;;;17.27;4.57;;;;;;;-145.18;100.00;46646.72;5010350;28;20069;-80
2022/06/12 03:21:15;;;;;;;12.60;3.43;;;;;;;-145.18;100.00;46646.72;5011090;28;20032;-79
2022/06/12 03:23:57;;;;;;;11.40;3.50;;;;;;;-145.18;100.00;46652.59;5010576;28;20034;-80
2022/06/12 03:26:34;;;;;;;14.43;3.53;;;;;;;-145.18;100.00;46642.81;5011012;28;20038;-80
2022/06/12 03:29:17;;;;;;;23.10;3.93;;;;;;;-145.18;100.00;46644.78;5010375;28;20034;-80
2022/06/12 03:31:55;;;;;;;17.37;3.20;;;;;;;-145.18;100.00;46646.72;5010682;28;20026;-81
2022/06/12 03:34:43;;;;;;;10.87;3.47;;;;;;;-145.18;100.00;46648.69;5010744;28;20037;-80
2022/06/12 03:37:18;;;;;;;13.67;3.43;;;;;;;-145.18;100.00;46652.59;5010558;28;20040;-79
2022/06/12 03:39:55;;;;;;;;;;;;;;;-145.18;100.00;46644.78;5010998;28;20030;-79
2022/06/12 03:42:33;;;;;;;15.20;3.43;;;;;;;-145.18;100.00;46648.69;5010253;28;20016;-79
2022/06/12 03:45:05;;;;;;;13.13;5.20;;;;;;;-145.18;100.00;46644.78;5010671;28;20038;-79
2022/06/12 03:47:37;;;;;;;18.73;4.00;;;;;;;-145.18;100.00;46646.72;5010331;28;20069;-78
2022/06/12 03:50:17;;;;;;;15.23;3.43;;;;;;;-145.18;100.00;46644.78;5009928;28;20437;-80
2022/06/12 03:52:55;;;;;;;13.63;3.13;;;;;;;-145.18;100.00;46646.72;5010306;28;20402;-80
2022/06/12 03:58:21;;;;;;;11.20;3.00;;;;;;;-145.18;100.00;46646.72;5010328;28;20041;-80
2022/06/12 04:00:49;;;;;;;13.27;3.50;;;;;;;-145.18;100.00;46648.69;5010793;28;20030;-81
2022/06/12 04:03:27;;;;;;;14.10;3.60;;;;;;;-145.18;100.00;46650.63;5009574;28;20137;-84
2022/06/12 04:06:08;;;;;;;12.27;3.33;;;;;;;-145.18;100.00;46654.53;5010730;28;20029;-81
2022/06/12 04:08:53;;;;;;;12.73;3.63;;;;;;;-145.18;100.00;46650.63;5010452;28;20036;-80
2022/06/12 04:11:22;;;;;;;16.30;3.65;;;;;;;-145.18;100.00;46648.69;5010698;28;20536;-81
2022/06/12 04:13:49;;;;;;;16.77;3.73;;;;;;;-145.18;100.00;46648.69;5009841;28;20460;-80
2022/06/12 04:16:35;;;;;;;11.87;3.50;;;;;;;-145.18;100.00;46652.59;5010242;28;20113;-79
2022/06/12 04:19:03;;;;;;;16.80;3.70;;;;;;;-145.18;100.00;46644.78;4996593;28;20039;-80
2022/06/12 04:21:44;;;;;;;12.67;3.80;;;;;;;-145.18;100.00;46648.69;4990450;28;20541;-80
2022/06/12 04:24:47;;;;;;;14.57;4.13;;;;;;;-145.18;100.00;46644.78;4990821;28;20409;-80
2022/06/12 04:27:24;;;;;;;17.17;4.53;;;;;;;-145.18;100.00;46640.88;4987388;28;20049;-80
2022/06/12 04:29:53;;;;;;;16.87;4.23;;;;;;;-145.18;100.00;46644.78;4990638;28;20023;-80
2022/06/12 04:32:20;;;;;;;11.20;3.60;;;;;;;-145.18;100.00;46635.00;4990376;28;20073;-80
2022/06/12 04:34:45;;;;;;;16.17;4.03;;;;;;;-145.18;100.00;46636.94;4990286;28;20038;-80
2022/06/12 04:37:18;;;;;;;13.50;3.63;;;;;;;-145.18;100.00;46638.91;4990848;28;20030;-81
2022/06/12 04:39:45;;;;;;;21.77;4.43;;;;;;;-145.18;100.00;46642.81;4990226;28;20034;-78
2022/06/12 04:42:14;;;;;;;11.47;3.63;;;;;;;-145.18;100.00;46635.00;4990742;28;20039;-79
2022/06/12 04:44:40;;;;;;;13.97;4.57;;;;;;;-145.18;100.00;46638.91;4990260;28;20501;-79
2022/06/12 04:47:06;;;;;;;14.63;4.37;;;;;;;-145.18;100.00;46640.88;4990514;28;20030;-79
2022/06/12 04:49:34;;;;;;;13.37;3.57;;;;;;;-145.18;100.00;46640.88;4990476;28;20494;-80
2022/06/12 04:52:02;;;;;;;20.23;4.13;;;;;;;-145.18;100.00;46638.91;4990484;28;20037;-79
2022/06/12 04:54:29;;;;;;;16.40;3.53;;;;;;;-145.18;100.00;46640.88;4990217;28;20030;-79
2022/06/12 04:56:55;;;;;;;18.33;4.30;;;;;;;-145.18;100.00;46640.88;4990295;28;20394;-79
2022/06/12 04:59:21;;;;;;;23.80;4.60;;;;;;;-145.18;100.00;46638.91;4990181;28;20063;-80
2022/06/12 05:01:48;;;;;;;21.27;4.43;;;;;;;-145.18;100.00;46640.88;4991665;28;20030;-82
2022/06/12 05:04:14;;;;;;;19.43;4.90;;;;;;;-145.18;100.00;46636.94;4993486;28;20053;-81
2022/06/12 05:06:40;;;;;;;15.13;4.33;;;;;;;-145.18;100.00;46638.91;4994027;28;20042;-80
2022/06/12 05:09:07;;;;;;;16.87;3.97;;;;;;;-145.18;100.00;46636.94;4993232;28;20023;-81
2022/06/12 05:11:33;;;;;;;18.27;5.40;;;;;;;-145.18;100.00;46638.91;4981155;28;20040;-80
2022/06/12 05:13:58;;;;;;;16.37;4.43;;;;;;;-145.18;100.00;46636.94;4993038;28;20026;-81
2022/06/12 05:16:35;;;;;;;15.03;4.77;;;;;;;-145.18;100.00;46636.94;4994069;28;20034;-80
2022/06/12 05:19:02;;;;;;;28.83;5.20;;;;;;;-145.18;100.00;46640.88;4993112;28;20045;-81
2022/06/12 05:21:28;;;;;;;20.60;4.87;;;;;;;-145.18;100.00;46638.91;4993688;28;20042;-83
2022/06/12 05:23:54;;;;;;;19.43;5.17;;;;;;;-145.18;100.00;46635.00;4997702;28;20117;-82
2022/06/12 05:26:20;;;;;;;17.27;6.50;;;;;;;-145.18;100.00;46633.06;4995640;28;20149;-79
2022/06/12 05:28:46;;;;;;;24.33;6.30;;;;;;;-145.18;100.00;46633.06;4993111;28;20502;-84
2022/06/12 05:31:12;;;;;;;23.73;5.63;;;;;;;-145.18;100.00;46633.06;4992578;28;20545;-85
2022/06/12 05:33:37;;;;;;;21.50;5.53;;;;;;;-145.18;100.00;46629.13;4991328;28;20073;-84
2022/06/12 05:36:05;;;;;;;23.77;5.23;;;;;;;-145.18;100.00;46635.00;4993096;28;20153;-84
2022/06/12 05:38:30;;;;;;;23.63;5.97;;;;;;;-145.18;100.00;46631.09;4994707;28;20105;-84
2022/06/12 05:40:55;;;;;;;29.70;5.70;;;;;;;-145.18;100.00;46629.13;4993197;28;20610;-84
2022/06/12 05:43:21;;;;;;;22.07;5.40;;;;;;;-145.18;100.00;46631.09;4992966;28;20160;-85
2022/06/12 05:45:47;;;;;;;23.50;5.87;;;;;;;-145.18;100.00;46635.00;4993394;28;20035;-84
2022/06/12 05:48:17;;;;;;;24.37;7.00;;;;;;;-145.18;100.00;46635.00;4992857;28;20478;-84
2022/06/12 05:50:50;;;;;;;26.27;5.77;;;;;;;-145.18;100.00;46629.13;4993416;28;20026;-84
2022/06/12 05:53:16;;;;;;;29.17;6.00;;;;;;;-145.18;100.00;46629.13;4992955;28;20031;-85
2022/06/12 05:55:42;;;;;;;21.37;6.00;;;;;;;-145.18;100.00;46633.06;5003220;28;20092;-84
2022/06/12 05:58:08;;;;;;;29.10;6.77;;;;;;;-145.18;100.00;46633.06;5006403;28;20038;-84
2022/06/12 06:00:34;;;;;;;19.17;6.10;;;;;;;-145.18;100.00;46636.94;5008637;28;20065;-84
2022/06/12 06:03:00;;;;;;;19.83;6.37;;;;;;;-145.18;100.00;46636.94;5004972;28;20048;-86
2022/06/12 06:05:26;;;;;;;21.60;6.47;;;;;;;-145.18;100.00;46638.91;5003109;28;20133;-85
2022/06/12 06:07:52;;;;;;;24.57;6.43;;;;;;;-145.18;100.00;46635.00;5008533;28;20080;-85
2022/06/12 06:10:25;;;;;;;25.10;6.80;;;;;;;-145.18;100.00;46636.94;4993798;28;20038;-86
2022/06/12 06:12:52;;;;;;;24.87;6.47;;;;;;;-145.18;100.00;46636.94;5004439;28;20037;-85
2022/06/12 06:15:19;;;;;;;15.80;5.00;;;;;;;-145.18;100.00;46635.00;5011977;28;20556;-86
2022/06/12 06:17:44;;;;;;;23.17;6.33;;;;;;;-145.18;100.00;46636.94;5011410;28;20026;-86
2022/06/12 06:20:14;;;;;;;31.63;6.83;;;;;;;-145.18;100.00;46638.91;5011444;28;20040;-86
2022/06/12 06:22:40;;;;;;;25.07;6.67;;;;;;;-145.18;100.00;46636.94;5011671;28;20030;-85
2022/06/12 06:25:06;;;;;;;24.67;6.20;;;;;;;-145.18;100.00;46636.94;5011764;28;20548;-85
2022/06/12 06:27:31;;;;;;;23.93;6.60;;;;;;;-145.18;100.00;46635.00;5012037;28;20037;-86
2022/06/12 06:29:56;;;;;;;25.10;6.80;;;;;;;-145.18;100.00;46640.88;5011491;28;20034;-85
2022/06/12 06:32:22;;;;;;;25.33;6.80;;;;;;;-145.18;100.00;46633.06;5011176;28;20482;-86
2022/06/12 06:34:47;;;;;;;22.90;6.20;;;;;;;-145.18;100.00;46635.00;5010352;28;20030;-85
2022/06/12 06:37:13;;;;;;;23.37;7.30;;;;;;;-145.18;100.00;46636.94;5010730;28;20088;-86
2022/06/12 06:39:39;;;;;;;29.80;6.63;;;;;;;-145.18;100.00;46638.91;5009581;28;20809;-87
2022/06/12 06:42:06;;;;;;;19.20;6.83;;;;;;;-145.18;100.00;46642.81;5009991;28;20386;-86
2022/06/12 06:47:16;;;;;;;23.67;5.87;;;;;;;-145.18;100.00;46640.88;5010554;28;20049;-86
2022/06/12 06:49:42;;;;;;;26.37;5.63;;;;;;;-145.18;100.00;46642.81;5010718;28;20030;-85
2022/06/12 06:52:07;;;;;;;17.00;5.30;;;;;;;-145.18;100.00;46648.69;5011543;28;20029;-86
2022/06/12 06:54:33;;;;;;;18.07;5.70;;;;;;;-145.18;100.00;46636.94;5011446;28;20042;-85
2022/06/12 06:56:58;;;;;;;20.87;5.70;;;;;;;-145.18;100.00;46640.88;5011245;28;20545;-84
2022/06/12 06:59:24;;;;;;;21.40;6.20;;;;;;;-145.18;100.00;46644.78;5011043;28;20026;-86
2022/06/12 07:01:49;;;;;;;17.10;5.23;;;;;;;-145.18;100.00;46646.72;5011352;28;20067;-86
2022/06/12 07:04:15;;;;;;;20.50;5.13;;;;;;;-145.18;100.00;46648.69;5010952;28;20053;-86
2022/06/12 07:06:41;;;;;;;18.87;4.07;;;;;;;-145.18;100.00;46648.69;5011355;28;20045;-86
2022/06/12 07:09:07;;;;;;;21.40;4.70;;;;;;;-145.18;100.00;46648.69;5010870;28;20068;-86
2022/06/12 07:11:33;;;;;;;16.70;5.27;;;;;;;-145.18;100.00;46646.72;5011111;28;20461;-86
2022/06/12 07:13:59;;;;;;;24.63;5.00;;;;;;;-145.18;100.00;46650.63;5010780;28;20513;-86
2022/06/12 07:16:28;;;;;;;18.87;4.63;;;;;;;-145.18;100.00;46650.63;5011236;28;20029;-86
2022/06/12 07:18:53;;;;;;;19.87;4.87;;;;;;;-145.18;100.00;46646.72;5010687;28;20030;-86
2022/06/12 07:21:20;;;;;;;18.70;4.40;;;;;;;-145.18;100.00;46646.72;5011163;28;20049;-86
2022/06/12 07:23:45;;;;;;;20.87;4.60;;;;;;;-145.18;100.00;46650.63;5010034;28;20036;-86
2022/06/12 07:26:31;;;;;;;20.63;4.67;;;;;;;-145.18;100.00;46648.69;5011169;28;20029;-86
2022/06/12 07:28:57;;;;;;;17.13;5.15;;;;;;;-145.18;100.00;46650.63;5010322;28;20034;-85
2022/06/12 07:31:23;;;;;;;16.70;4.73;;;;;;;-145.18;100.00;46650.63;5010976;28;20073;-85
2022/06/12 07:33:49;;;;;;;19.10;4.67;;;;;;;-145.18;100.00;46652.59;5010206;28;20041;-87
2022/06/12 07:36:16;;;;;;;23.17;4.57;;;;;;;-145.18;100.00;46656.50;4993404;28;20038;-87
2022/06/12 07:38:43;;;;;;;14.13;3.10;;;;;;;-145.18;100.00;46666.25;5010450;28;20045;-86
2022/06/12 07:41:11;;;;;;;16.77;4.23;;;;;;;-145.18;100.00;46666.25;5011063;28;20033;-87
2022/06/12 07:43:37;;;;;;;15.13;3.80;;;;;;;-145.18;100.00;46668.22;5057044;23;20065;-87
2022/06/12 07:46:06;;;;;;;10.30;3.00;;;;;;;-145.18;100.00;46666.25;4974093;28;20027;-87
2022/06/12 07:48:32;;;;;;;15.03;3.87;;;;;;;-145.18;100.00;46664.31;4974525;28;20038;-87
2022/06/12 07:51:02;;;;;;;18.13;3.77;;;;;;;-145.18;100.00;46666.25;4974454;28;20402;-86
2022/06/12 07:53:28;;;;;;;19.00;3.43;;;;;;;-145.18;100.00;46664.31;4974242;28;20027;-87
2022/06/12 07:55:54;;;;;;;15.47;3.53;;;;;;;-145.18;100.00;46646.72;4974079;28;20042;-87
2022/06/12 07:58:23;;;;;;;17.47;3.60;;;;;;;-145.18;100.00;46642.81;4974156;28;20035;-88
2022/06/12 08:00:49;;;;;;;19.07;4.23;;;;;;;-145.18;100.00;46652.59;4974120;28;20031;-86
2022/06/12 08:03:15;;;;;;;14.27;3.43;;;;;;;-145.18;100.00;46654.53;4991153;28;20376;-87
2022/06/12 08:05:40;;;;;;;12.23;3.67;;;;;;;-145.18;100.00;46654.53;4993650;28;20031;-87
2022/06/12 08:08:06;;;;;;;13.80;4.30;;;;;;;-145.18;100.00;46562.72;4991846;28;20039;-86
2022/06/12 08:10:31;;;;;;;13.30;3.53;;;;;;;-145.18;100.00;46578.34;4993615;28;20038;-86
2022/06/12 08:12:57;;;;;;;15.03;3.70;;;;;;;-145.18;100.00;46566.63;4993618;28;20035;-87
2022/06/12 08:15:27;;;;;;;12.43;3.53;;;;;;;-145.18;100.00;46578.34;4992610;28;20121;-86
2022/06/12 08:17:53;;;;;;;15.37;3.83;;;;;;;-145.18;100.00;46566.63;4992365;28;20026;-87
2022/06/12 08:20:25;;;;;;;16.70;3.97;;;;;;;-145.18;100.00;46551.00;4992352;28;20038;-87
2022/06/12 08:22:53;;;;;;;11.53;2.90;;;;;;;-145.18;100.00;46545.16;4992056;28;20026;-88
2022/06/12 08:25:19;;;;;;;11.13;3.17;;;;;;;-145.18;100.00;46547.09;4991594;28;20033;-87
2022/06/12 08:27:45;;;;;;;11.43;2.73;;;;;;;-145.18;100.00;46551.00;4992076;28;20125;-86
2022/06/12 08:30:11;;;;;;;17.00;4.30;;;;;;;-145.18;100.00;46556.88;4991579;28;20183;-86
2022/06/12 08:32:37;;;;;;;10.47;2.83;;;;;;;-145.18;100.00;46547.09;4991381;28;20038;-88
2022/06/12 08:35:10;;;;;;;12.77;3.30;;;;;;;-145.18;100.00;46556.88;4991523;28;20049;-87
2022/06/12 08:37:37;;;;;;;12.93;3.90;;;;;;;-145.18;100.00;46560.78;4995395;28;20042;-87
2022/06/12 08:40:08;;;;;;;11.13;3.10;;;;;;;-145.18;100.00;46558.81;4994993;28;20105;-87
2022/06/12 08:43:10;;;;;;;9.17;2.43;;;;;;;-145.18;100.00;46570.53;4995276;28;20050;-88
2022/06/12 08:45:44;;;;;;;10.27;2.63;;;;;;;-145.18;100.00;46580.31;4994443;28;20085;-87
2022/06/12 08:48:18;;;;;;;8.67;2.63;;;;;;;-145.18;100.00;46568.59;4994866;28;20085;-86
2022/06/12 08:51:01;;;;;;;15.33;2.50;;;;;;;-145.18;100.00;46578.34;4994506;28;20618;-87
2022/06/12 08:53:43;;;;;;;10.40;2.93;;;;;;;-145.18;100.00;46574.44;4994253;28;20030;-86
2022/06/12 08:56:25;;;;;;;12.50;2.90;;;;;;;-145.18;100.00;46599.84;4993183;28;20494;-88
2022/06/12 08:59:14;;;;;;;10.20;2.63;;;;;;;-145.18;100.00;46603.75;4993434;28;20497;-87
2022/06/12 09:01:42;;;;;;;7.47;2.77;;;;;;;-145.18;100.00;46603.75;4980467;28;20173;-85
2022/06/12 09:04:14;;;;;;;10.30;2.87;;;;;;;-145.18;100.00;46619.38;4992893;28;20188;-83
2022/06/12 09:06:46;;;;;;;9.17;3.00;;;;;;;-145.18;100.00;46625.22;4994273;28;20387;-83
2022/06/12 09:09:34;;;;;;;12.03;2.70;;;;;;;-145.18;100.00;46621.31;4993754;28;20022;-86
2022/06/12 09:12:05;;;;;;;7.30;2.37;;;;;;;-145.18;100.00;46625.22;4993934;28;20058;-87
2022/06/12 09:14:52;;;;;;;10.27;2.33;;;;;;;-145.18;100.00;46845.97;4993691;28;20042;-86
2022/06/12 09:17:26;;;;;;;14.00;3.23;;;;;;;-145.18;100.00;47199.56;4994277;28;20076;-87
2022/06/12 09:20:36;;;;;;;9.60;2.43;;;;;;;-145.18;100.00;47215.19;4993275;28;20085;-85
2022/06/12 09:23:08;;;;;;;9.87;2.07;;;;;;;-145.18;100.00;47191.75;4994190;28;20434;-82
2022/06/12 09:25:57;;;;;;;10.93;2.37;;;;;;;-145.18;100.00;47152.66;4993595;28;20061;-85
2022/06/12 09:28:22;;;;;;;10.53;2.27;;;;;;;-145.18;100.00;47121.41;4993463;28;20045;-86
2022/06/12 09:31:04;;;;;;;8.13;2.00;;;;;;;-145.18;100.00;47111.66;4993888;28;20026;-83
2022/06/12 09:33:50;;;;;;;9.23;2.43;;;;;;;-145.18;100.00;47140.94;4993215;28;20026;-85
2022/06/12 09:36:33;;;;;;;10.10;2.17;;;;;;;-145.18;100.00;47123.38;4992021;28;20039;-84
2022/06/12 09:39:08;;;;;;;15.43;3.00;;;;;;;-145.18;100.00;47121.41;4992920;28;20474;-85
2022/06/12 09:41:52;;;;;;;8.18;2.13;;;;;;;-145.18;100.00;47097.97;4993451;28;20375;-84
2022/06/12 09:44:29;;;;;;;6.77;2.20;;;;;;;-145.18;100.00;47101.88;4991893;28;20054;-86
2022/06/12 09:47:11;;;;;;;11.10;2.37;;;;;;;-145.18;100.00;47105.78;4991945;28;20026;-85
2022/06/12 09:49:46;;;;;;;10.40;2.37;;;;;;;-145.18;100.00;47084.28;4991487;28;20106;-84
2022/06/12 09:52:33;;;;;;;9.10;2.58;;;;;;;-145.18;100.00;47084.28;4992942;28;20050;-84
2022/06/12 09:55:25;;;;;;;10.73;2.27;;;;;;;-145.18;100.00;47135.09;4991257;28;20050;-84
2022/06/12 09:58:21;;;;;;;9.93;2.27;;;;;;;-145.18;100.00;47121.41;4991958;28;20105;-84
2022/06/12 10:01:07;;;;;;;10.07;3.03;;;;;;;-145.18;100.00;47211.28;4993128;28;20034;-85
2022/06/12 10:03:42;;;;;;;7.93;2.00;;;;;;;-145.18;100.00;47056.94;4992968;28;20036;-83
2022/06/12 10:06:21;;;;;;;11.87;2.30;;;;;;;-145.18;100.00;47172.19;4992675;28;20038;-83
2022/06/12 10:09:07;;;;;;;9.17;2.30;;;;;;;-145.18;100.00;47097.97;4992514;28;20065;-84
2022/06/12 10:12:00;;;;;;;6.77;2.33;;;;;;;-145.18;100.00;47084.28;4993143;28;20058;-85
2022/06/12 10:14:34;;;;;;;7.67;2.00;;;;;;;-145.18;100.00;47094.06;4992435;28;20041;-84
2022/06/12 10:17:05;;;;;;;14.30;2.33;;;;;;;-145.18;100.00;47064.75;4975167;28;20076;-85
2022/06/12 10:19:35;;;;;;;10.03;2.37;;;;;;;-145.18;100.00;47082.34;4992409;28;20032;-82
2022/06/12 10:22:09;;;;;;;10.57;2.03;;;;;;;-145.18;100.00;47072.56;4992647;28;20036;-83
2022/06/12 10:24:34;;;;;;;9.13;2.27;;;;;;;-145.18;100.00;47068.66;4992130;28;20096;-84
2022/06/12 10:27:11;;;;;;;8.43;2.37;;;;;;;-145.18;100.00;47070.63;4992178;28;20034;-84
2022/06/12 10:29:48;;;;;;;12.90;2.07;;;;;;;-145.18;100.00;47133.13;4991842;28;20562;-83
2022/06/12 10:32:50;;;;;;;10.17;1.97;;;;;;;-145.18;100.00;47101.88;4995044;28;20026;-83
2022/06/12 10:35:18;;;;;;;10.17;2.17;;;;;;;-145.18;100.00;47078.44;4992267;28;20451;-83
2022/06/12 10:37:44;;;;;;;6.30;1.80;;;;;;;-145.18;100.00;47086.25;4993781;28;20034;-82
2022/06/12 10:40:22;;;;;;;6.50;1.83;;;;;;;-145.18;100.00;47068.66;4973264;28;20064;-83
2022/06/12 10:42:52;;;;;;;8.97;2.23;;;;;;;-145.18;100.00;47060.84;4972562;28;20077;-82
2022/06/12 10:45:30;;;;;;;7.30;2.00;;;;;;;-145.18;100.00;47051.09;4972496;28;20042;-84
2022/06/12 10:48:20;;;;;;;9.97;1.97;;;;;;;-145.18;100.00;47062.81;4972343;28;20041;-83
2022/06/12 10:50:55;;;;;;;9.23;2.13;;;;;;;-145.18;100.00;47076.47;4963113;28;20047;-83
2022/06/12 10:53:24;;;;;;;10.80;2.03;;;;;;;-145.18;100.00;47140.94;4972401;28;20038;-84
2022/06/12 10:56:01;;;;;;;6.23;1.90;;;;;;;-145.18;100.00;47158.53;4972018;28;20042;-83
2022/06/12 10:58:42;;;;;;;7.50;2.87;;;;;;;-145.18;100.00;47137.03;4972270;28;20376;-84
2022/06/12 11:01:39;;;;;;;8.07;2.33;;;;;;;-145.18;100.00;47133.13;4971735;28;20129;-83
2022/06/12 11:04:21;;;;;;;9.10;2.30;;;;;;;-145.18;100.00;47058.91;4928846;28;20061;-83
2022/06/12 11:07:05;;;;;;;8.67;2.17;;;;;;;-145.18;100.00;47109.69;4972419;28;20495;-85
2022/06/12 11:09:36;;;;;;;12.00;2.43;;;;;;;-145.18;100.00;47051.09;4971918;28;20050;-85
2022/06/12 11:12:17;;;;;;;9.57;2.30;;;;;;;-145.18;100.00;47049.13;4972158;28;20031;-85
2022/06/12 11:14:58;;;;;;;7.47;2.30;;;;;;;-145.18;100.00;47047.19;4988875;28;20046;-87
2022/06/12 11:17:23;;;;;;;7.50;1.70;;;;;;;-145.18;100.00;47051.09;4991479;28;20034;-85
2022/06/12 11:20:13;;;;;;;5.97;1.57;;;;;;;-145.18;100.00;47045.22;4991028;28;20099;-83
2022/06/12 11:22:48;;;;;;;7.00;1.93;;;;;;;-145.18;100.00;47027.63;4991171;28;20037;-83
2022/06/12 11:25:32;;;;;;;6.97;1.80;;;;;;;-145.18;100.00;47039.34;4990717;28;20038;-83
2022/06/12 11:28:10;;;;;;;6.20;1.73;;;;;;;-145.18;100.00;47035.44;4988658;28;20046;-82
2022/06/12 11:30:57;;;;;;;6.73;2.03;;;;;;;-145.18;100.00;47049.13;4991185;28;20112;-83
2022/06/12 11:33:36;;;;;;;7.07;1.70;;;;;;;-145.18;100.00;47055.00;4991005;28;20033;-83
2022/06/12 11:36:23;;;;;;;7.57;2.37;;;;;;;-145.18;100.00;47053.03;4987593;28;20092;-83
2022/06/12 11:39:11;;;;;;;6.07;2.00;;;;;;;-145.18;100.00;47068.66;4989549;28;20085;-82
2022/06/12 11:42:04;;;;;;;4.77;1.80;;;;;;;-145.18;100.00;47039.34;4977611;28;20108;-82